createdAt,value
2019-03-10T00:00:33.205Z,26.03
2019-03-10T00:03:02.587Z,25.87
2019-03-10T00:05:31.886Z,22.73
2019-03-10T00:08:01.218Z,26.03
2019-03-10T00:10:30.540Z,11.30
2019-03-10T00:12:59.856Z,14.60
2019-03-10T00:15:29.090Z,10.60
2019-03-10T00:17:58.329Z,9.43
2019-03-10T00:20:27.594Z,12.63
2019-03-10T00:22:56.843Z,10.37
2019-03-10T00:25:26.055Z,9.60
2019-03-10T00:27:55.318Z,14.47
2019-03-10T00:30:25.765Z,17.23
2019-03-10T00:32:55.093Z,19.53
2019-03-10T00:35:24.402Z,18.87
2019-03-10T00:37:53.737Z,14.40
2019-03-10T00:41:15.066Z,29.20
2019-03-10T00:44:38.485Z,9.07
2019-03-10T00:47:50.939Z,8.03
2019-03-10T00:50:58.116Z,6.57
2019-03-10T00:53:27.353Z,3.30
2019-03-10T00:55:56.523Z,4.90
2019-03-10T00:58:25.787Z,4.00
2019-03-10T01:00:55.109Z,6.43
2019-03-10T01:03:24.407Z,2.67
2019-03-10T01:05:53.749Z,2.73
2019-03-10T01:08:23.689Z,3.77
2019-03-10T01:10:53.086Z,2.90
2019-03-10T01:13:22.528Z,3.07
2019-03-10T01:15:52.445Z,1.93
2019-03-10T01:18:23.908Z,2.73
2019-03-10T01:20:54.742Z,3.20
2019-03-10T01:23:23.991Z,7.00
2019-03-10T01:25:53.254Z,5.17
2019-03-10T01:28:22.478Z,1.43
2019-03-10T01:31:01.393Z,2.20
2019-03-10T01:33:56.943Z,1.53
2019-03-10T01:36:24.673Z,1.27
2019-03-10T01:38:53.926Z,1.37
2019-03-10T01:41:23.272Z,2.93
2019-03-10T01:43:52.596Z,2.57
2019-03-10T01:46:21.902Z,3.20
2019-03-10T01:48:51.145Z,2.53
2019-03-10T01:51:20.412Z,1.50
2019-03-10T01:53:49.655Z,1.70
2019-03-10T01:56:19.003Z,2.07
2019-03-10T01:58:48.314Z,1.90
2019-03-10T02:01:17.936Z,2.83
2019-03-10T02:03:47.231Z,1.63
2019-03-10T02:06:16.537Z,2.17
2019-03-10T02:08:45.701Z,3.07
2019-03-10T02:11:15.042Z,4.20
2019-03-10T02:13:44.368Z,1.97
2019-03-10T02:16:13.612Z,2.53
2019-03-10T02:18:42.850Z,2.27
2019-03-10T02:21:12.111Z,3.47
2019-03-10T02:23:41.447Z,3.40
2019-03-10T02:26:10.665Z,7.20
2019-03-10T02:28:39.982Z,6.20
2019-03-10T02:31:09.655Z,5.53
2019-03-10T02:33:38.888Z,8.33
2019-03-10T02:36:08.180Z,5.83
2019-03-10T02:38:37.415Z,8.00
2019-03-10T02:41:06.643Z,4.30
2019-03-10T02:43:35.976Z,7.90
2019-03-10T02:46:05.194Z,7.47
2019-03-10T02:48:34.427Z,5.67
2019-03-10T02:51:03.663Z,9.90
2019-03-10T02:53:32.912Z,7.33
2019-03-10T02:56:02.175Z,10.53
2019-03-10T02:58:31.483Z,6.67
2019-03-10T03:01:00.711Z,9.10
2019-03-10T03:03:30.066Z,5.07
2019-03-10T03:05:59.774Z,6.13
2019-03-10T03:08:29.200Z,4.67
2019-03-10T03:10:58.477Z,7.53
2019-03-10T03:13:27.783Z,4.37
2019-03-10T03:15:57.204Z,9.67
2019-03-10T03:18:26.543Z,8.90
2019-03-10T03:20:55.793Z,7.60
2019-03-10T03:23:25.340Z,9.47
2019-03-10T03:25:54.676Z,7.60
2019-03-10T03:28:24.000Z,7.33
2019-03-10T03:30:53.335Z,8.43
2019-03-10T03:33:22.562Z,7.70
2019-03-10T03:35:53.870Z,6.30
2019-03-10T03:38:29.539Z,4.97
2019-03-10T03:41:01.534Z,9.53
2019-03-10T03:43:30.855Z,10.67
2019-03-10T03:46:00.088Z,8.20
2019-03-10T03:48:29.333Z,5.93
2019-03-10T03:50:58.578Z,7.70
2019-03-10T03:53:27.811Z,9.43
2019-03-10T03:55:57.038Z,9.33
2019-03-10T03:58:26.269Z,8.77
2019-03-10T04:01:01.158Z,8.70
2019-03-10T04:03:30.475Z,10.40
2019-03-10T04:05:59.786Z,11.20
2019-03-10T04:08:29.150Z,10.87
2019-03-10T04:10:58.382Z,7.83
2019-03-10T04:13:27.602Z,10.47
2019-03-10T04:15:56.834Z,8.77
2019-03-10T04:18:26.059Z,12.63
2019-03-10T04:20:55.320Z,9.60
2019-03-10T04:23:24.523Z,7.13
2019-03-10T04:25:53.792Z,23.67
2019-03-10T04:28:23.120Z,13.87
2019-03-10T04:30:52.449Z,47.27
2019-03-10T04:33:21.741Z,8.93
2019-03-10T04:35:50.987Z,9.57
2019-03-10T04:38:20.349Z,9.47
2019-03-10T04:40:49.560Z,12.00
2019-03-10T04:43:18.897Z,11.87
2019-03-10T04:45:48.780Z,13.50
2019-03-10T04:48:18.106Z,10.50
2019-03-10T04:50:47.322Z,8.43
2019-03-10T04:53:16.692Z,9.27
2019-03-10T04:56:10.760Z,11.50
2019-03-10T04:58:44.178Z,10.30
2019-03-10T05:01:13.527Z,5.70
2019-03-10T05:03:42.845Z,10.63
2019-03-10T05:06:12.086Z,18.70
2019-03-10T05:08:41.410Z,10.07
2019-03-10T05:11:10.707Z,4.93
2019-03-10T05:13:39.934Z,8.93
2019-03-10T05:16:09.153Z,6.90
2019-03-10T05:18:38.430Z,10.07
2019-03-10T05:21:07.734Z,9.47
2019-03-10T05:23:41.871Z,10.27
2019-03-10T05:26:11.257Z,5.97
2019-03-10T05:28:47.756Z,8.87
2019-03-10T05:31:17.039Z,7.03
2019-03-10T05:33:46.410Z,8.80
2019-03-10T05:36:15.742Z,8.53
2019-03-10T05:38:45.051Z,7.23
2019-03-10T05:41:14.274Z,7.57
2019-03-10T05:43:43.744Z,8.87
2019-03-10T05:46:12.962Z,8.57
2019-03-10T05:48:42.302Z,8.27
2019-03-10T05:51:11.517Z,12.50
2019-03-10T05:53:40.825Z,12.13
2019-03-10T05:56:10.063Z,13.00
2019-03-10T05:58:39.299Z,9.30
2019-03-10T06:01:08.643Z,7.43
2019-03-10T06:03:37.858Z,8.83
2019-03-10T06:06:07.174Z,5.40
2019-03-10T06:08:36.417Z,12.43
2019-03-10T06:11:05.636Z,9.10
2019-03-10T06:13:34.945Z,10.57
2019-03-10T06:16:04.132Z,20.33
2019-03-10T06:18:33.393Z,7.57
2019-03-10T06:21:02.618Z,9.10
2019-03-10T06:23:31.854Z,12.20
2019-03-10T06:26:01.090Z,8.10
2019-03-10T06:28:30.354Z,8.63
2019-03-10T06:31:00.135Z,9.27
2019-03-10T06:33:29.886Z,8.03
2019-03-10T06:35:59.142Z,5.80
2019-03-10T06:38:28.446Z,7.33
2019-03-10T06:40:57.708Z,7.00
2019-03-10T06:43:26.963Z,10.80
2019-03-10T06:45:56.250Z,8.30
2019-03-10T06:48:25.484Z,16.07
2019-03-10T06:50:54.799Z,9.57
2019-03-10T06:53:24.122Z,15.97
2019-03-10T06:55:53.442Z,13.57
2019-03-10T06:58:22.681Z,11.67
2019-03-10T07:00:51.935Z,53.73
2019-03-10T07:03:21.164Z,11.53
2019-03-10T07:05:50.707Z,10.70
2019-03-10T07:08:20.423Z,19.67
2019-03-10T07:10:49.663Z,8.90
2019-03-10T07:13:18.985Z,11.93
2019-03-10T07:15:48.308Z,11.40
2019-03-10T07:18:17.852Z,14.00
2019-03-10T07:20:47.182Z,13.73
2019-03-10T07:23:18.043Z,12.73
2019-03-10T07:25:49.896Z,15.67
2019-03-10T07:28:23.721Z,14.50
2019-03-10T07:31:00.831Z,17.23
2019-03-10T07:33:48.142Z,16.80
2019-03-10T07:36:31.038Z,50.30
2019-03-10T07:39:19.480Z,50.97
2019-03-10T07:42:05.817Z,15.90
2019-03-10T07:44:59.537Z,13.23
2019-03-10T07:47:47.946Z,11.47
2019-03-10T07:50:44.187Z,29.00
2019-03-10T07:53:25.077Z,46.27
2019-03-10T07:56:03.592Z,45.90
2019-03-10T07:58:51.390Z,16.77
2019-03-10T08:01:57.831Z,13.00
2019-03-10T08:04:36.599Z,12.90
2019-03-10T08:07:34.030Z,27.63
2019-03-10T08:10:16.014Z,15.60
2019-03-10T08:12:52.102Z,17.60
2019-03-10T08:15:39.154Z,29.10
2019-03-10T08:18:17.642Z,14.67
2019-03-10T08:20:57.556Z,17.30
2019-03-10T08:23:43.698Z,14.07
2019-03-10T08:26:37.901Z,14.17
2019-03-10T08:29:44.394Z,14.10
2019-03-10T08:32:24.324Z,16.03
2019-03-10T08:35:14.844Z,14.30
2019-03-10T08:38:18.457Z,20.13
2019-03-10T08:40:55.752Z,14.30
2019-03-10T08:43:59.425Z,9.00
2019-03-10T08:46:43.591Z,14.13
2019-03-10T08:49:23.501Z,14.83
2019-03-10T08:51:57.777Z,11.87
2019-03-10T08:54:31.747Z,18.10
2019-03-10T08:57:08.924Z,10.80
2019-03-10T08:59:50.193Z,9.80
2019-03-10T09:02:50.453Z,5.63
2019-03-10T09:05:38.963Z,13.53
2019-03-10T09:08:45.611Z,7.13
2019-03-10T09:11:31.314Z,9.73
2019-03-10T09:14:15.773Z,5.57
2019-03-10T09:17:03.899Z,9.97
2019-03-10T09:19:53.177Z,9.97
2019-03-10T09:22:44.475Z,10.43
2019-03-10T09:25:32.693Z,5.77
2019-03-10T09:28:08.866Z,8.80
2019-03-10T09:30:49.854Z,12.67
2019-03-10T09:33:26.034Z,9.47
2019-03-10T09:36:14.407Z,12.17
2019-03-10T09:39:05.494Z,12.37
2019-03-10T09:41:42.162Z,8.50
2019-03-10T09:44:21.551Z,8.27
2019-03-10T09:46:58.119Z,4.63
2019-03-10T09:49:40.939Z,7.27
2019-03-10T09:52:29.208Z,7.93
2019-03-10T09:55:18.371Z,6.73
2019-03-10T09:58:02.162Z,6.57
2019-03-10T10:00:53.630Z,8.80
2019-03-10T10:03:42.650Z,10.43
2019-03-10T10:06:49.191Z,6.93
2019-03-10T10:09:29.601Z,7.83
2019-03-10T10:12:13.315Z,6.30
2019-03-10T10:14:52.035Z,7.23
2019-03-10T10:17:40.313Z,10.80
2019-03-10T10:20:26.798Z,7.43
2019-03-10T10:23:05.683Z,6.20
2019-03-10T10:25:47.411Z,6.43
2019-03-10T10:28:38.735Z,7.23
2019-03-10T10:31:25.635Z,8.60
2019-03-10T10:34:07.687Z,8.97
2019-03-10T10:36:56.354Z,7.77
2019-03-10T10:39:56.925Z,9.20
2019-03-10T10:42:42.372Z,17.80
2019-03-10T10:45:36.933Z,8.87
2019-03-10T10:48:19.015Z,9.63
2019-03-10T10:50:58.667Z,7.47
2019-03-10T10:53:45.955Z,20.03
2019-03-10T10:56:40.285Z,15.10
2019-03-10T10:59:19.230Z,242.50
2019-03-10T11:02:16.611Z,49.00
2019-03-10T11:05:12.106Z,7.10
2019-03-10T11:07:53.021Z,75.93
2019-03-10T11:10:38.550Z,8.83
2019-03-10T11:13:17.213Z,7.33
2019-03-10T11:16:17.770Z,9.50
2019-03-10T11:19:06.049Z,5.37
2019-03-10T11:21:45.053Z,7.77
2019-03-10T11:24:19.433Z,43.20
2019-03-10T11:26:54.963Z,7.40
2019-03-10T11:29:49.117Z,15.17
2019-03-10T11:32:36.035Z,14.83
2019-03-10T11:35:30.705Z,18.37
2019-03-10T11:38:21.888Z,4.77
2019-03-10T11:40:58.459Z,5.00
2019-03-10T11:43:46.727Z,5.30
2019-03-10T11:46:31.879Z,14.47
2019-03-10T11:49:23.221Z,10.73
2019-03-10T11:52:14.587Z,25.43
2019-03-10T11:55:06.006Z,18.77
2019-03-10T11:57:50.017Z,19.33
2019-03-10T12:00:27.554Z,16.10
2019-03-10T12:03:12.010Z,9.73
2019-03-10T12:06:00.288Z,10.30
2019-03-10T12:08:57.457Z,13.57
2019-03-10T12:11:26.712Z,4.43
2019-03-10T12:13:56.096Z,7.67
2019-03-10T12:16:25.397Z,7.40
2019-03-10T12:18:54.642Z,5.83
2019-03-10T12:21:23.887Z,18.20
2019-03-10T12:23:53.245Z,120.83
2019-03-10T12:26:22.572Z,26.23
2019-03-10T12:28:52.294Z,13.93
2019-03-10T12:31:21.615Z,189.30
2019-03-10T12:33:50.872Z,10.50
2019-03-10T12:36:20.239Z,6.87
2019-03-10T12:38:49.856Z,5.10
2019-03-10T12:41:19.103Z,34.73
2019-03-10T12:43:48.337Z,19.10
2019-03-10T12:46:17.939Z,25.00
2019-03-10T12:48:47.273Z,12.77
2019-03-10T12:51:16.538Z,20.67
2019-03-10T12:53:45.868Z,8.20
2019-03-10T12:56:15.200Z,12.77
2019-03-10T12:58:44.481Z,29.83
2019-03-10T13:01:13.823Z,7.63
2019-03-10T13:03:43.161Z,8.00
2019-03-10T13:06:12.482Z,6.00
2019-03-10T13:08:41.732Z,15.40
2019-03-10T13:11:11.030Z,81.97
2019-03-10T13:13:41.063Z,12.63
2019-03-10T13:16:12.428Z,57.60
2019-03-10T13:18:41.361Z,38.80
2019-03-10T13:21:11.137Z,15.40
2019-03-10T13:23:40.390Z,37.77
2019-03-10T13:26:09.647Z,19.93
2019-03-10T13:28:39.389Z,10.47
2019-03-10T13:31:08.700Z,10.83
2019-03-10T13:33:38.039Z,13.03
2019-03-10T13:36:08.662Z,31.60
2019-03-10T13:38:37.930Z,12.73
2019-03-10T13:41:07.260Z,36.77
2019-03-10T13:43:36.672Z,9.90
2019-03-10T13:46:06.045Z,12.37
2019-03-10T13:48:35.436Z,30.73
2019-03-10T13:51:04.908Z,18.13
2019-03-10T13:53:34.269Z,9.10
2019-03-10T13:56:03.643Z,67.53
2019-03-10T13:58:32.899Z,7.07
2019-03-10T14:01:02.211Z,8.20
2019-03-10T14:03:32.047Z,7.23
2019-03-10T14:06:01.395Z,21.37
2019-03-10T14:08:30.678Z,13.47
2019-03-10T14:10:59.951Z,15.83
2019-03-10T14:13:29.282Z,12.63
2019-03-10T14:15:58.603Z,38.63
2019-03-10T14:18:28.392Z,36.77
2019-03-10T14:20:57.731Z,24.20
2019-03-10T14:23:27.009Z,26.63
2019-03-10T14:25:56.567Z,33.13
2019-03-10T14:28:25.952Z,26.33
2019-03-10T14:30:55.269Z,16.70
2019-03-10T14:33:24.555Z,9.10
2019-03-10T14:35:53.871Z,18.00
2019-03-10T14:38:23.119Z,21.70
2019-03-10T14:40:52.389Z,16.53
2019-03-10T14:43:21.689Z,16.97
2019-03-10T14:45:51.010Z,45.50
2019-03-10T14:48:20.245Z,26.17
2019-03-10T14:50:49.412Z,23.37
2019-03-10T14:53:18.748Z,113.33
2019-03-10T14:55:48.011Z,35.57
2019-03-10T14:58:17.355Z,23.63
2019-03-10T15:00:46.741Z,95.70
2019-03-10T15:03:16.089Z,161.63
2019-03-10T15:05:45.378Z,50.23
2019-03-10T15:08:14.620Z,97.70
2019-03-10T15:10:43.942Z,118.53
2019-03-10T15:13:13.322Z,87.17
2019-03-10T15:15:42.657Z,90.50
2019-03-10T15:18:11.875Z,52.03
2019-03-10T15:20:41.203Z,75.10
2019-03-10T15:23:10.515Z,51.60
2019-03-10T15:25:39.873Z,57.50
2019-03-10T15:28:09.111Z,99.13
2019-03-10T15:30:38.432Z,58.53
2019-03-10T15:33:07.709Z,34.43
2019-03-10T15:35:37.014Z,40.00
2019-03-10T15:38:06.361Z,34.23
2019-03-10T15:40:35.644Z,44.00
2019-03-10T15:43:04.955Z,112.50
2019-03-10T15:45:34.212Z,91.00
2019-03-10T15:48:03.828Z,39.07
2019-03-10T15:50:33.223Z,35.93
2019-03-10T15:53:02.539Z,39.47
2019-03-10T15:55:31.813Z,51.67
2019-03-10T15:58:01.136Z,52.10
2019-03-10T16:00:30.672Z,102.53
2019-03-10T16:03:00.715Z,27.83
2019-03-10T16:05:30.027Z,41.07
2019-03-10T16:07:59.281Z,567.00
2019-03-10T16:10:28.618Z,173.17
2019-03-10T16:12:58.271Z,47.50
2019-03-10T16:15:27.579Z,685.10
2019-03-10T16:17:56.846Z,463.30
2019-03-10T16:20:26.160Z,329.20
2019-03-10T16:22:55.696Z,325.80
2019-03-10T16:25:25.134Z,627.00
2019-03-10T16:27:54.462Z,276.60
2019-03-10T16:30:23.962Z,715.00
2019-03-10T16:32:53.394Z,812.57
2019-03-10T16:35:22.751Z,925.77
2019-03-10T16:37:52.105Z,220.23
2019-03-10T16:40:21.753Z,507.00
2019-03-10T16:42:51.019Z,630.60
2019-03-10T16:45:20.904Z,366.77
2019-03-10T16:47:50.181Z,472.27
2019-03-10T16:50:19.650Z,537.70
2019-03-10T16:52:48.909Z,386.33
2019-03-10T16:55:18.645Z,760.27
2019-03-10T16:57:47.901Z,642.63
2019-03-10T17:00:19.876Z,293.13
2019-03-10T17:02:49.654Z,34.90
2019-03-10T17:05:19.015Z,285.10
2019-03-10T17:07:48.564Z,304.40
2019-03-10T17:10:18.096Z,135.47
2019-03-10T17:12:47.405Z,133.70
2019-03-10T17:15:17.769Z,475.60
2019-03-10T17:17:48.029Z,94.73
2019-03-10T17:20:17.505Z,102.30
2019-03-10T17:22:46.918Z,226.03
2019-03-10T17:25:16.256Z,70.17
2019-03-10T17:27:45.716Z,119.37
2019-03-10T17:30:17.055Z,85.70
2019-03-10T17:32:46.377Z,89.77
2019-03-10T17:35:16.435Z,142.43
2019-03-10T17:37:48.146Z,426.70
2019-03-10T17:40:17.391Z,113.37
2019-03-10T17:42:46.706Z,298.37
2019-03-10T17:45:17.303Z,135.07
2019-03-10T17:47:46.600Z,167.70
2019-03-10T17:50:16.138Z,334.67
2019-03-10T17:52:46.191Z,370.50
2019-03-10T17:55:15.471Z,65.33
2019-03-10T17:57:44.833Z,305.47
2019-03-10T18:00:16.614Z,178.23
2019-03-10T18:02:45.929Z,432.50
2019-03-10T18:05:15.181Z,169.37
2019-03-10T18:07:44.444Z,80.67
2019-03-10T18:10:13.861Z,118.93
2019-03-10T18:12:43.329Z,117.07
2019-03-10T18:15:12.698Z,142.43
2019-03-10T18:17:42.014Z,68.13
2019-03-10T18:20:12.921Z,42.17
2019-03-10T18:22:42.236Z,91.33
2019-03-10T18:25:11.615Z,36.93
2019-03-10T18:27:40.888Z,66.30
2019-03-10T18:30:13.027Z,158.10
2019-03-10T18:32:42.363Z,52.07
2019-03-10T18:35:11.615Z,43.53
2019-03-10T18:37:41.017Z,43.87
2019-03-10T18:40:13.422Z,44.50
2019-03-10T18:42:42.820Z,43.07
2019-03-10T18:45:14.047Z,45.97
2019-03-10T18:47:43.281Z,47.07
2019-03-10T18:50:13.413Z,50.07
2019-03-10T18:52:42.697Z,44.90
2019-03-10T18:55:12.710Z,47.73
2019-03-10T18:57:42.079Z,66.57
2019-03-10T19:00:14.939Z,193.20
2019-03-10T19:02:46.080Z,70.93
2019-03-10T19:05:15.440Z,89.00
2019-03-10T19:07:44.716Z,86.17
2019-03-10T19:10:15.018Z,49.03
2019-03-10T19:12:44.485Z,43.53
2019-03-10T19:15:17.998Z,66.70
2019-03-10T19:17:47.249Z,30.23
2019-03-10T19:20:17.425Z,37.10
2019-03-10T19:22:47.280Z,38.50
2019-03-10T19:25:16.549Z,100.43
2019-03-10T19:27:45.852Z,76.20
2019-03-10T19:30:16.105Z,55.57
2019-03-10T19:32:45.288Z,74.27
2019-03-10T19:35:14.652Z,68.57
2019-03-10T19:37:43.927Z,71.67
2019-03-10T19:40:15.033Z,36.87
2019-03-10T19:42:44.768Z,58.53
2019-03-10T19:45:15.039Z,55.73
2019-03-10T19:47:44.383Z,51.33
2019-03-10T19:50:14.412Z,54.77
2019-03-10T19:52:44.303Z,40.07
2019-03-10T19:55:13.654Z,64.50
2019-03-10T19:57:42.962Z,49.37
2019-03-10T20:00:14.681Z,52.33
2019-03-10T20:02:44.103Z,44.57
2019-03-10T20:05:13.391Z,44.83
2019-03-10T20:07:43.132Z,43.07
2019-03-10T20:10:13.438Z,49.30
2019-03-10T20:12:42.798Z,49.97
2019-03-10T20:15:15.205Z,65.13
2019-03-10T20:17:44.643Z,49.60
2019-03-10T20:20:15.405Z,54.00
2019-03-10T20:22:44.938Z,44.00
2019-03-10T20:25:14.590Z,42.60
2019-03-10T20:27:44.095Z,51.73
2019-03-10T20:30:15.764Z,54.67
2019-03-10T20:32:45.099Z,45.70
2019-03-10T20:35:14.785Z,58.20
2019-03-10T20:37:45.035Z,38.20
2019-03-10T20:40:15.735Z,32.30
2019-03-10T20:42:45.434Z,65.83
2019-03-10T20:45:14.953Z,77.80
2019-03-10T20:47:44.486Z,111.27
2019-03-10T20:50:14.563Z,92.63
2019-03-10T20:52:44.080Z,67.63
2019-03-10T20:55:14.012Z,43.63
2019-03-10T20:57:43.775Z,61.20
2019-03-10T21:00:16.022Z,72.20
2019-03-10T21:02:45.387Z,68.70
2019-03-10T21:05:14.735Z,115.83
2019-03-10T21:07:44.040Z,109.87
2019-03-10T21:10:15.492Z,71.43
2019-03-10T21:12:44.788Z,65.83
2019-03-10T21:15:15.662Z,40.83
2019-03-10T21:17:45.061Z,65.30
2019-03-10T21:20:15.556Z,59.10
2019-03-10T21:22:44.845Z,28.67
2019-03-10T21:25:16.149Z,51.60
2019-03-10T21:27:46.748Z,41.53
2019-03-10T21:30:20.804Z,32.97
2019-03-10T21:32:50.255Z,46.23
2019-03-10T21:35:19.507Z,125.17
2019-03-10T21:37:49.325Z,88.97
2019-03-10T21:40:20.343Z,56.27
2019-03-10T21:42:51.713Z,59.40
2019-03-10T21:45:21.201Z,80.47
2019-03-10T21:47:51.063Z,36.03
2019-03-10T21:50:20.386Z,43.57
2019-03-10T21:52:49.663Z,48.63
2019-03-10T21:55:18.913Z,42.03
2019-03-10T21:57:48.606Z,37.93
2019-03-10T22:00:18.099Z,23.20
2019-03-10T22:02:47.310Z,28.97
2019-03-10T22:05:16.690Z,30.27
2019-03-10T22:07:46.013Z,24.50
2019-03-10T22:10:26.119Z,31.67
2019-03-10T22:12:49.790Z,37.57
2019-03-10T22:15:19.066Z,17.00
2019-03-10T22:17:48.311Z,23.83
2019-03-10T22:20:17.642Z,16.53
2019-03-10T22:22:49.607Z,28.53
2019-03-10T22:25:18.172Z,26.90
2019-03-10T22:27:47.476Z,13.97
2019-03-10T22:30:17.262Z,24.33
2019-03-10T22:32:46.531Z,19.10
2019-03-10T22:35:15.946Z,23.57
2019-03-10T22:37:45.276Z,17.87
2019-03-10T22:40:15.338Z,20.00
2019-03-10T22:42:44.671Z,17.43
2019-03-10T22:45:14.608Z,20.47
2019-03-10T22:47:44.464Z,22.40
2019-03-10T22:50:14.767Z,21.20
2019-03-10T22:52:44.590Z,24.10
2019-03-10T22:55:14.162Z,20.73
2019-03-10T22:57:44.412Z,22.00
2019-03-10T23:00:15.859Z,19.03
2019-03-10T23:02:45.214Z,16.03
2019-03-10T23:05:16.214Z,23.67
2019-03-10T23:07:45.546Z,18.93
2019-03-10T23:10:14.992Z,19.23
2019-03-10T23:12:44.289Z,29.20
2019-03-10T23:15:13.845Z,14.40
2019-03-10T23:17:43.191Z,11.00
2019-03-10T23:20:13.009Z,11.00
2019-03-10T23:22:42.317Z,17.27
2019-03-10T23:25:12.225Z,21.80
2019-03-10T23:27:41.629Z,16.83
2019-03-10T23:30:12.427Z,13.43
2019-03-10T23:32:41.699Z,23.27
2019-03-10T23:35:10.997Z,15.30
2019-03-10T23:37:40.231Z,12.17
2019-03-10T23:40:09.960Z,14.80
2019-03-10T23:42:39.188Z,19.80
2019-03-10T23:45:08.890Z,13.20
2019-03-10T23:47:38.799Z,11.50
2019-03-10T23:50:08.756Z,10.43
2019-03-10T23:52:37.970Z,10.73
2019-03-10T23:55:08.265Z,10.40
2019-03-10T23:57:37.604Z,8.23
